createdAt,value
2023-04-24T00:00:09.905Z,69.96
2023-04-24T00:02:41.447Z,71.97
2023-04-24T00:05:10.145Z,72.00
2023-04-24T00:07:37.968Z,72.17
2023-04-24T00:10:06.501Z,71.81
2023-04-24T00:12:34.564Z,71.19
2023-04-24T00:15:02.780Z,71.56
2023-04-24T00:17:31.857Z,71.44
2023-04-24T00:19:59.748Z,71.26
2023-04-24T00:22:28.984Z,71.73
2023-04-24T00:24:56.952Z,71.66
2023-04-24T00:27:25.323Z,71.67
2023-04-24T00:29:53.437Z,72.50
2023-04-24T00:32:21.419Z,72.41
2023-04-24T00:34:50.031Z,72.67
2023-04-24T00:37:17.903Z,73.68
2023-04-24T00:39:46.235Z,75.72
2023-04-24T00:42:14.251Z,76.30
2023-04-24T00:44:42.505Z,75.87
2023-04-24T00:47:11.864Z,75.40
2023-04-24T00:49:39.990Z,74.98
2023-04-24T00:52:09.960Z,74.91
2023-04-24T00:54:38.001Z,75.48
2023-04-24T00:57:06.767Z,75.71
2023-04-24T00:59:34.840Z,75.57
2023-04-24T01:02:02.700Z,74.83
2023-04-24T01:04:31.128Z,74.75
2023-04-24T01:06:59.147Z,73.82
2023-04-24T01:09:27.860Z,73.86
2023-04-24T01:11:56.168Z,73.38
2023-04-24T01:14:24.160Z,73.54
2023-04-24T01:16:52.052Z,73.76
2023-04-24T01:19:20.414Z,75.20
2023-04-24T01:21:48.793Z,75.35
2023-04-24T01:24:16.887Z,75.11
2023-04-24T01:26:47.334Z,74.96
2023-04-24T01:29:15.462Z,75.39
2023-04-24T01:31:45.092Z,74.97
2023-04-24T01:34:14.001Z,74.89
2023-04-24T01:36:42.878Z,75.19
2023-04-24T01:39:10.818Z,76.24
2023-04-24T01:41:38.615Z,75.28
2023-04-24T01:44:06.791Z,75.95
2023-04-24T01:46:35.974Z,75.89
2023-04-24T01:49:06.009Z,75.65
2023-04-24T01:51:34.018Z,76.52
2023-04-24T01:54:01.918Z,76.18
2023-04-24T01:56:31.605Z,76.45
2023-04-24T01:59:01.173Z,77.63
2023-04-24T02:01:36.164Z,78.31
2023-04-24T02:04:05.154Z,80.29
2023-04-24T02:06:33.132Z,81.68
2023-04-24T02:09:02.988Z,84.59
2023-04-24T02:11:30.978Z,84.03
2023-04-24T02:13:59.354Z,83.75
2023-04-24T02:16:27.664Z,83.31
2023-04-24T02:18:55.958Z,82.78
2023-04-24T02:21:26.569Z,83.38
2023-04-24T02:23:54.782Z,81.98
2023-04-24T02:26:22.757Z,82.76
2023-04-24T02:28:53.254Z,83.24
2023-04-24T02:31:22.514Z,82.62
2023-04-24T02:33:50.471Z,82.57
2023-04-24T02:36:18.398Z,82.68
2023-04-24T02:38:46.738Z,82.60
2023-04-24T02:41:14.754Z,82.79
2023-04-24T02:43:44.243Z,82.39
2023-04-24T02:46:12.438Z,82.10
2023-04-24T02:48:40.420Z,82.09
2023-04-24T02:51:09.398Z,81.63
2023-04-24T02:55:22.609Z,82.55
2023-04-24T02:57:50.927Z,82.36
2023-04-24T03:00:19.178Z,82.53
2023-04-24T03:02:47.275Z,83.89
2023-04-24T03:05:15.451Z,83.83
2023-04-24T03:07:43.495Z,83.18
2023-04-24T03:10:11.467Z,82.28
2023-04-24T03:12:39.517Z,81.59
2023-04-24T03:15:08.707Z,80.62
2023-04-24T03:17:38.631Z,82.02
2023-04-24T03:20:07.515Z,83.79
2023-04-24T03:22:35.823Z,83.76
2023-04-24T03:25:09.461Z,83.52
2023-04-24T03:27:38.513Z,82.46
2023-04-24T03:30:36.007Z,82.40
2023-04-24T03:33:05.376Z,81.94
2023-04-24T03:35:37.736Z,82.33
2023-04-24T03:38:10.138Z,82.99
2023-04-24T03:41:07.918Z,83.14
2023-04-24T03:43:41.162Z,82.45
2023-04-24T03:46:10.688Z,81.67
2023-04-24T03:48:46.219Z,82.35
2023-04-24T03:51:15.796Z,82.07
2023-04-24T03:53:48.019Z,82.32
2023-04-24T03:56:19.857Z,83.28
2023-04-24T03:58:48.384Z,83.41
2023-04-24T04:01:17.339Z,82.28
2023-04-24T04:03:50.655Z,81.63
2023-04-24T04:06:22.810Z,81.32
2023-04-24T04:08:52.528Z,81.80
2023-04-24T04:11:21.063Z,81.08
2023-04-24T04:13:49.273Z,81.13
2023-04-24T04:16:20.660Z,81.04
2023-04-24T04:18:51.444Z,80.41
2023-04-24T04:21:19.479Z,80.45
2023-04-24T04:23:49.345Z,80.23
2023-04-24T04:26:22.386Z,79.37
2023-04-24T04:29:04.715Z,78.02
2023-04-24T04:31:34.528Z,77.39
2023-04-24T04:34:08.819Z,77.77
2023-04-24T04:36:38.172Z,78.37
2023-04-24T04:39:24.978Z,77.46
2023-04-24T04:42:05.427Z,77.03
2023-04-24T04:44:41.066Z,76.56
2023-04-24T04:47:12.391Z,76.67
2023-04-24T04:49:40.679Z,76.58
2023-04-24T04:52:15.037Z,76.22
2023-04-24T04:54:43.145Z,77.41
2023-04-24T04:57:11.877Z,77.11
2023-04-24T04:59:40.750Z,75.77
2023-04-24T05:02:13.772Z,75.42
2023-04-24T05:04:42.004Z,75.29
2023-04-24T05:07:10.478Z,74.43
2023-04-24T05:09:41.720Z,74.20
2023-04-24T05:12:10.924Z,73.84
2023-04-24T05:14:45.909Z,74.03
2023-04-24T05:17:15.397Z,74.17
2023-04-24T05:19:44.119Z,73.99
2023-04-24T05:22:12.890Z,72.94
2023-04-24T05:24:50.904Z,73.26
2023-04-24T05:27:38.263Z,72.09
2023-04-24T05:30:13.461Z,72.50
2023-04-24T05:32:41.586Z,71.72
2023-04-24T05:35:09.929Z,72.23
2023-04-24T05:37:38.288Z,71.29
2023-04-24T05:40:07.077Z,70.19
2023-04-24T05:42:35.035Z,69.43
2023-04-24T05:45:03.203Z,68.60
2023-04-24T05:47:31.317Z,67.41
2023-04-24T05:49:59.786Z,66.52
2023-04-24T05:52:28.134Z,66.27
2023-04-24T05:54:56.860Z,65.51
2023-04-24T05:57:28.661Z,64.76
2023-04-24T06:00:02.951Z,64.55
2023-04-24T06:02:41.607Z,63.29
2023-04-24T06:05:13.326Z,61.75
2023-04-24T06:07:41.728Z,63.05
2023-04-24T06:10:11.293Z,62.30
2023-04-24T06:12:43.223Z,61.14
2023-04-24T06:15:17.137Z,59.74
2023-04-24T06:17:58.895Z,56.20
2023-04-24T06:20:27.584Z,51.76
2023-04-24T06:22:55.723Z,47.26
2023-04-24T06:25:27.942Z,42.88
2023-04-24T06:27:56.935Z,39.30
2023-04-24T06:30:24.856Z,35.82
2023-04-24T06:32:52.928Z,34.99
2023-04-24T06:35:21.107Z,33.31
2023-04-24T06:37:49.517Z,33.74
2023-04-24T06:40:19.724Z,35.38
2023-04-24T06:42:47.810Z,34.68
2023-04-24T06:45:16.354Z,35.81
2023-04-24T06:47:44.394Z,35.75
2023-04-24T06:50:12.990Z,34.77
2023-04-24T06:52:42.150Z,32.49
2023-04-24T06:55:10.330Z,35.17
2023-04-24T06:57:38.278Z,36.42
2023-04-24T07:00:07.959Z,34.61
2023-04-24T07:02:36.554Z,32.12
2023-04-24T07:05:04.955Z,31.44
2023-04-24T07:07:32.823Z,31.09
2023-04-24T07:10:00.860Z,32.40
2023-04-24T07:12:28.680Z,32.36
2023-04-24T07:14:56.717Z,33.16
2023-04-24T07:17:24.645Z,33.23
2023-04-24T07:19:52.556Z,33.92
2023-04-24T07:22:20.698Z,33.65
2023-04-24T07:24:48.544Z,33.54
2023-04-24T07:27:16.565Z,32.90
2023-04-24T07:29:45.279Z,35.21
2023-04-24T07:32:13.589Z,36.06
2023-04-24T07:34:41.709Z,38.13
2023-04-24T07:37:09.742Z,39.14
2023-04-24T07:39:37.679Z,39.75
2023-04-24T07:42:05.707Z,40.75
2023-04-24T07:44:33.712Z,38.79
2023-04-24T07:47:01.756Z,35.77
2023-04-24T07:49:29.669Z,33.64
2023-04-24T07:51:57.609Z,31.42
2023-04-24T07:54:25.903Z,31.32
2023-04-24T07:56:53.903Z,28.55
2023-04-24T07:59:21.906Z,28.31
2023-04-24T08:01:49.785Z,26.72
2023-04-24T08:04:19.398Z,25.96
2023-04-24T08:06:49.233Z,26.13
2023-04-24T08:09:17.123Z,24.48
2023-04-24T08:11:45.477Z,24.58
2023-04-24T08:14:14.638Z,24.06
2023-04-24T08:16:43.212Z,24.14
2023-04-24T08:19:11.294Z,23.56
2023-04-24T08:21:39.537Z,23.70
2023-04-24T08:24:09.292Z,23.28
2023-04-24T08:26:37.396Z,23.46
2023-04-24T08:29:06.157Z,23.37
2023-04-24T08:31:34.187Z,21.37
2023-04-24T08:34:02.355Z,21.88
2023-04-24T08:36:43.418Z,21.83
2023-04-24T08:39:15.555Z,22.79
2023-04-24T08:41:44.417Z,23.01
2023-04-24T08:44:14.169Z,22.23
2023-04-24T08:46:42.641Z,22.79
2023-04-24T08:49:10.998Z,22.41
2023-04-24T08:51:39.556Z,23.22
2023-04-24T08:54:08.533Z,24.32
2023-04-24T08:56:41.633Z,22.73
2023-04-24T08:59:10.373Z,21.85
2023-04-24T09:01:42.927Z,21.98
2023-04-24T09:04:12.401Z,22.40
2023-04-24T09:06:41.188Z,22.92
2023-04-24T09:09:11.106Z,21.96
2023-04-24T09:11:39.328Z,21.69
2023-04-24T09:14:08.120Z,22.00
2023-04-24T09:16:37.015Z,22.69
2023-04-24T09:19:05.071Z,22.49
2023-04-24T09:21:37.386Z,23.31
2023-04-24T09:24:08.897Z,24.75
2023-04-24T09:26:37.760Z,24.76
2023-04-24T09:29:06.224Z,24.55
2023-04-24T09:31:34.333Z,24.62
2023-04-24T09:34:09.208Z,24.29
2023-04-24T09:36:42.768Z,25.68
2023-04-24T09:39:13.636Z,26.25
2023-04-24T09:41:49.758Z,26.64
2023-04-24T09:44:24.155Z,26.20
2023-04-24T09:46:56.855Z,25.53
2023-04-24T09:49:29.991Z,25.58
2023-04-24T09:52:11.665Z,25.26
2023-04-24T09:54:39.872Z,26.29
2023-04-24T09:57:11.199Z,28.59
2023-04-24T09:59:45.698Z,27.09
2023-04-24T10:02:21.273Z,28.97
2023-04-24T10:04:57.960Z,29.33
2023-04-24T10:07:29.073Z,28.33
2023-04-24T10:09:57.629Z,28.59
2023-04-24T10:12:26.465Z,27.85
2023-04-24T10:14:55.439Z,26.12
2023-04-24T10:17:26.505Z,26.35
2023-04-24T10:19:55.176Z,25.57
2023-04-24T10:22:25.214Z,25.27
2023-04-24T10:24:53.626Z,23.89
2023-04-24T10:27:22.968Z,24.66
2023-04-24T10:29:54.448Z,23.33
2023-04-24T10:32:22.726Z,23.97
2023-04-24T10:34:50.806Z,24.94
2023-04-24T10:37:19.380Z,25.23
2023-04-24T10:39:50.096Z,23.54
2023-04-24T10:42:18.866Z,23.53
2023-04-24T10:44:50.330Z,23.76
2023-04-24T10:47:18.504Z,25.33
2023-04-24T10:49:46.809Z,23.70
2023-04-24T10:52:15.362Z,24.44
2023-04-24T10:54:46.837Z,23.49
2023-04-24T10:57:20.851Z,22.72
2023-04-24T11:00:09.946Z,23.00
2023-04-24T11:02:39.770Z,22.67
2023-04-24T11:05:08.672Z,23.10
2023-04-24T11:08:14.597Z,22.57
2023-04-24T11:10:46.118Z,22.77
2023-04-24T11:13:18.643Z,26.13
2023-04-24T11:16:16.650Z,25.07
2023-04-24T11:18:51.983Z,25.35
2023-04-24T11:21:20.348Z,25.48
2023-04-24T11:23:48.721Z,25.86
2023-04-24T11:26:22.896Z,25.92
2023-04-24T11:28:51.946Z,26.02
2023-04-24T11:31:39.901Z,27.68
2023-04-24T11:34:15.511Z,26.79
2023-04-24T11:36:49.426Z,26.19
2023-04-24T11:39:17.529Z,26.93
2023-04-24T11:41:48.463Z,28.65
2023-04-24T11:44:16.718Z,30.10
2023-04-24T11:46:44.677Z,28.86
2023-04-24T11:49:13.746Z,31.08
2023-04-24T11:51:51.354Z,31.03
2023-04-24T11:54:22.424Z,32.23
2023-04-24T11:56:50.924Z,33.93
2023-04-24T11:59:18.770Z,34.63
2023-04-24T12:01:50.349Z,35.16
2023-04-24T12:04:20.558Z,35.72
2023-04-24T12:07:02.352Z,37.36
2023-04-24T12:09:30.529Z,40.48
2023-04-24T12:11:58.493Z,40.42
2023-04-24T12:14:26.631Z,41.17
2023-04-24T12:16:54.838Z,42.07
2023-04-24T12:19:24.029Z,42.02
2023-04-24T12:22:02.423Z,40.99
2023-04-24T12:24:31.567Z,41.60
2023-04-24T12:26:59.936Z,42.16
2023-04-24T12:29:27.852Z,41.80
2023-04-24T12:31:56.811Z,41.60
2023-04-24T12:34:27.271Z,44.23
2023-04-24T12:36:56.005Z,46.30
2023-04-24T12:39:28.022Z,46.58
2023-04-24T12:42:04.171Z,47.84
2023-04-24T12:44:34.151Z,48.54
2023-04-24T12:47:02.867Z,51.84
2023-04-24T12:49:32.697Z,53.70
2023-04-24T12:52:00.923Z,55.73
2023-04-24T12:54:34.094Z,56.32
2023-04-24T12:57:02.669Z,58.39
2023-04-24T12:59:30.842Z,62.27
2023-04-24T13:01:59.216Z,63.99
2023-04-24T13:04:27.443Z,66.14
2023-04-24T13:06:55.603Z,64.70
2023-04-24T13:09:24.886Z,67.50
2023-04-24T13:11:53.040Z,67.81
2023-04-24T13:14:21.243Z,69.20
2023-04-24T13:16:49.529Z,68.79
2023-04-24T13:19:17.755Z,69.39
2023-04-24T13:21:46.114Z,69.81
2023-04-24T13:24:14.640Z,68.36
2023-04-24T13:26:43.179Z,68.95
2023-04-24T13:29:12.007Z,70.03
2023-04-24T13:31:40.014Z,72.18
2023-04-24T13:34:08.544Z,68.52
2023-04-24T13:36:36.752Z,69.72
2023-04-24T13:39:07.149Z,68.20
2023-04-24T13:41:36.553Z,69.66
2023-04-24T13:44:05.863Z,69.35
2023-04-24T13:46:34.114Z,71.48
2023-04-24T13:49:04.839Z,70.07
2023-04-24T13:51:37.297Z,72.57
2023-04-24T13:54:05.724Z,73.38
2023-04-24T13:56:36.821Z,72.82
2023-04-24T13:59:05.058Z,73.70
2023-04-24T14:01:33.653Z,73.28
2023-04-24T14:04:02.273Z,72.93
2023-04-24T14:06:31.045Z,72.01
2023-04-24T14:08:59.645Z,71.42
2023-04-24T14:11:27.937Z,71.73
2023-04-24T14:13:59.898Z,71.51
2023-04-24T14:16:29.631Z,72.23
2023-04-24T14:18:57.925Z,72.36
2023-04-24T14:21:26.012Z,73.12
2023-04-24T14:23:54.003Z,73.15
2023-04-24T14:26:22.064Z,73.90
2023-04-24T14:28:51.099Z,74.10
2023-04-24T14:31:19.433Z,73.97
2023-04-24T14:33:47.915Z,73.53
2023-04-24T14:36:16.343Z,71.61
2023-04-24T14:38:44.913Z,72.56
2023-04-24T14:41:14.866Z,64.83
2023-04-24T14:43:43.655Z,67.11
2023-04-24T14:46:12.846Z,68.82
2023-04-24T14:48:41.923Z,66.62
2023-04-24T14:51:10.346Z,68.43
2023-04-24T14:53:39.113Z,65.17
2023-04-24T14:56:07.785Z,66.61
2023-04-24T14:58:36.475Z,67.21
2023-04-24T15:01:04.788Z,67.35
2023-04-24T15:03:33.186Z,66.08
2023-04-24T15:06:02.440Z,66.60
2023-04-24T15:08:30.664Z,65.71
2023-04-24T15:10:59.277Z,64.20
2023-04-24T15:13:27.692Z,65.57
2023-04-24T15:15:56.189Z,66.77
2023-04-24T15:18:24.793Z,63.31
2023-04-24T15:20:53.087Z,65.76
2023-04-24T15:23:21.458Z,61.91
2023-04-24T15:25:50.224Z,64.39
2023-04-24T15:28:19.467Z,65.03
2023-04-24T15:30:47.976Z,64.96
2023-04-24T15:33:16.524Z,63.98
2023-04-24T15:35:45.044Z,63.85
2023-04-24T15:38:13.313Z,65.23
2023-04-24T15:40:42.016Z,61.59
2023-04-24T15:43:10.599Z,63.12
2023-04-24T15:45:39.176Z,65.01
2023-04-24T15:48:07.465Z,65.35
2023-04-24T15:50:36.032Z,63.62
2023-04-24T15:53:04.144Z,63.81
2023-04-24T15:55:33.918Z,66.11
2023-04-24T15:58:02.735Z,62.39
2023-04-24T16:00:34.682Z,64.50
2023-04-24T16:03:03.776Z,64.31
2023-04-24T16:05:32.630Z,63.84
2023-04-24T16:08:01.701Z,63.47
2023-04-24T16:10:30.508Z,63.07
2023-04-24T16:13:01.441Z,64.12
2023-04-24T16:15:31.187Z,63.92
2023-04-24T16:18:00.555Z,63.42
2023-04-24T16:20:29.956Z,63.48
2023-04-24T16:22:58.694Z,62.54
2023-04-24T16:25:30.727Z,63.64
2023-04-24T16:28:00.152Z,63.32
2023-04-24T16:30:29.492Z,63.33
2023-04-24T16:32:59.035Z,63.82
2023-04-24T16:35:28.499Z,63.45
2023-04-24T16:37:58.148Z,63.29
2023-04-24T16:40:28.421Z,63.07
2023-04-24T16:42:58.354Z,63.81
2023-04-24T16:45:28.210Z,65.11
2023-04-24T16:47:57.606Z,65.17
2023-04-24T16:50:27.128Z,64.82
2023-04-24T16:52:56.377Z,65.64
2023-04-24T16:55:26.074Z,66.47
2023-04-24T16:57:55.777Z,69.09
2023-04-24T17:00:25.312Z,70.90
2023-04-24T17:02:54.702Z,71.84
2023-04-24T17:05:24.351Z,72.45
2023-04-24T17:07:53.716Z,74.57
2023-04-24T17:10:23.260Z,77.01
2023-04-24T17:12:52.553Z,78.67
2023-04-24T17:15:22.165Z,78.80
2023-04-24T17:17:51.567Z,79.88
2023-04-24T17:20:23.220Z,81.92
2023-04-24T17:22:53.919Z,81.05
2023-04-24T17:25:23.386Z,81.78
2023-04-24T17:27:53.009Z,83.34
2023-04-24T17:30:22.606Z,82.70
2023-04-24T17:32:51.897Z,83.15
2023-04-24T17:35:22.760Z,84.42
2023-04-24T17:37:52.816Z,85.60
2023-04-24T17:40:22.502Z,85.26
2023-04-24T17:42:51.201Z,85.75
2023-04-24T17:45:19.639Z,85.65
2023-04-24T17:47:48.264Z,85.16
2023-04-24T17:50:17.040Z,84.38
2023-04-24T17:52:45.474Z,82.60
2023-04-24T17:55:14.034Z,81.63
2023-04-24T17:57:42.498Z,81.85
2023-04-24T18:00:11.663Z,83.21
2023-04-24T18:02:40.673Z,84.12
2023-04-24T18:05:09.437Z,85.52
2023-04-24T18:07:39.517Z,86.51
2023-04-24T18:10:08.709Z,87.56
2023-04-24T18:12:37.296Z,87.60
2023-04-24T18:15:14.279Z,88.64
2023-04-24T18:17:43.632Z,88.02
2023-04-24T18:20:12.900Z,88.77
2023-04-24T18:22:41.929Z,88.51
2023-04-24T18:25:11.265Z,88.87
2023-04-24T18:27:40.621Z,88.70
2023-04-24T18:30:14.476Z,88.10
2023-04-24T18:32:43.694Z,88.37
2023-04-24T18:35:12.095Z,88.28
2023-04-24T18:37:41.122Z,89.91
2023-04-24T18:40:10.464Z,89.62
2023-04-24T18:42:39.520Z,88.89
2023-04-24T18:45:08.707Z,87.83
2023-04-24T18:47:37.271Z,88.68
2023-04-24T18:50:06.853Z,88.78
2023-04-24T18:52:35.571Z,88.58
2023-04-24T18:55:05.151Z,88.34
2023-04-24T18:57:34.089Z,87.94
2023-04-24T19:00:02.592Z,90.73
2023-04-24T19:02:31.221Z,88.33
2023-04-24T19:04:59.500Z,80.71
2023-04-24T19:07:27.723Z,79.69
2023-04-24T19:09:56.111Z,79.49
2023-04-24T19:12:24.642Z,82.22
2023-04-24T19:14:56.310Z,81.31
2023-04-24T19:17:25.826Z,83.84
2023-04-24T19:19:54.425Z,80.75
2023-04-24T19:22:22.975Z,81.16
2023-04-24T19:24:51.578Z,82.80
2023-04-24T19:27:20.037Z,84.95
2023-04-24T19:29:48.678Z,83.18
2023-04-24T19:32:17.171Z,80.53
2023-04-24T19:34:45.952Z,79.98
2023-04-24T19:37:14.548Z,79.81
2023-04-24T19:39:43.004Z,82.92
2023-04-24T19:42:11.500Z,83.38
2023-04-24T19:44:39.803Z,82.68
2023-04-24T19:47:08.710Z,83.84
2023-04-24T19:49:36.840Z,87.08
2023-04-24T19:52:05.569Z,88.14
2023-04-24T19:54:34.076Z,87.67
2023-04-24T19:57:04.043Z,86.89
2023-04-24T19:59:33.998Z,85.63
2023-04-24T20:02:02.735Z,86.24
2023-04-24T20:04:31.530Z,85.68
2023-04-24T20:07:00.169Z,87.50
2023-04-24T20:09:29.868Z,88.14
2023-04-24T20:11:59.786Z,87.47
2023-04-24T20:14:28.181Z,87.29
2023-04-24T20:16:56.805Z,87.46
2023-04-24T20:19:25.198Z,87.58
2023-04-24T20:21:54.568Z,86.91
2023-04-24T20:24:23.022Z,86.37
2023-04-24T20:26:51.754Z,87.64
2023-04-24T20:29:19.994Z,88.66
2023-04-24T20:31:48.215Z,89.77
2023-04-24T20:34:16.299Z,88.79
2023-04-24T20:36:48.816Z,89.24
2023-04-24T20:39:17.787Z,90.89
2023-04-24T20:41:46.808Z,90.36
2023-04-24T20:44:15.286Z,89.89
2023-04-24T20:46:43.566Z,90.48
2023-04-24T20:49:12.136Z,89.89
2023-04-24T20:51:40.240Z,90.11
2023-04-24T20:54:08.526Z,90.49
2023-04-24T20:56:37.265Z,90.42
2023-04-24T20:59:05.382Z,91.25
2023-04-24T21:01:33.524Z,91.15
2023-04-24T21:04:01.964Z,90.61
2023-04-24T21:06:30.021Z,89.42
2023-04-24T21:08:58.094Z,90.45
2023-04-24T21:11:25.989Z,90.72
2023-04-24T21:13:54.231Z,90.32
2023-04-24T21:16:22.353Z,90.06
2023-04-24T21:18:50.284Z,89.11
2023-04-24T21:21:18.398Z,90.44
2023-04-24T21:23:46.598Z,88.86
2023-04-24T21:26:14.757Z,89.48
2023-04-24T21:28:42.940Z,88.30
2023-04-24T21:31:11.900Z,88.18
2023-04-24T21:33:39.842Z,88.42
2023-04-24T21:36:07.946Z,89.39
2023-04-24T21:38:35.837Z,90.62
2023-04-24T21:41:04.140Z,91.09
2023-04-24T21:43:43.859Z,90.79
2023-04-24T21:46:13.214Z,90.11
2023-04-24T21:48:41.105Z,89.43
2023-04-24T21:51:09.137Z,89.15
2023-04-24T21:53:37.256Z,88.91
2023-04-24T21:56:05.430Z,88.43
2023-04-24T21:58:33.506Z,89.00
2023-04-24T22:01:01.473Z,88.66
2023-04-24T22:03:30.646Z,88.74
2023-04-24T22:05:58.664Z,88.55
2023-04-24T22:08:26.680Z,89.49
2023-04-24T22:10:54.955Z,89.58
2023-04-24T22:13:24.203Z,89.25
2023-04-24T22:15:52.459Z,89.02
2023-04-24T22:18:20.709Z,90.26
2023-04-24T22:20:49.030Z,89.60
2023-04-24T22:23:18.289Z,89.38
2023-04-24T22:25:46.231Z,89.71
2023-04-24T22:28:14.051Z,89.72
2023-04-24T22:30:42.138Z,89.56
2023-04-24T22:33:10.198Z,90.21
2023-04-24T22:35:38.214Z,89.56
2023-04-24T22:38:06.058Z,89.52
2023-04-24T22:40:35.292Z,88.67
2023-04-24T22:43:03.917Z,89.44
2023-04-24T22:45:34.600Z,89.22
2023-04-24T22:48:02.939Z,90.28
2023-04-24T22:50:31.251Z,91.34
2023-04-24T22:52:59.083Z,91.71
2023-04-24T22:55:27.125Z,92.06
2023-04-24T22:57:57.692Z,92.36
2023-04-24T23:00:25.755Z,93.04
2023-04-24T23:02:53.808Z,92.87
2023-04-24T23:05:22.629Z,93.03
2023-04-24T23:07:50.628Z,92.66
2023-04-24T23:10:18.591Z,92.61
2023-04-24T23:12:46.386Z,93.05
2023-04-24T23:15:14.351Z,93.25
2023-04-24T23:17:42.433Z,92.13
2023-04-24T23:20:14.522Z,91.33
2023-04-24T23:22:42.760Z,93.00
2023-04-24T23:25:11.168Z,93.13
2023-04-24T23:27:39.838Z,93.53
2023-04-24T23:30:08.477Z,93.87
2023-04-24T23:32:36.504Z,94.08
2023-04-24T23:35:05.062Z,94.10
2023-04-24T23:37:33.016Z,93.84
2023-04-24T23:40:01.089Z,92.71
2023-04-24T23:42:29.145Z,91.65
2023-04-24T23:44:56.917Z,93.57
2023-04-24T23:47:24.774Z,93.66
2023-04-24T23:49:52.862Z,92.87
2023-04-24T23:52:20.730Z,92.78
2023-04-24T23:54:48.714Z,91.79
2023-04-24T23:57:16.550Z,92.10
2023-04-24T23:59:44.433Z,91.11
